createdAt,value
2023-03-06T00:00:33.866Z,75.70
2023-03-06T00:03:00.601Z,76.00
2023-03-06T00:05:27.920Z,76.30
2023-03-06T00:07:54.772Z,76.50
2023-03-06T00:10:27.112Z,76.80
2023-03-06T00:12:55.176Z,77.00
2023-03-06T00:15:22.578Z,77.00
2023-03-06T00:17:49.293Z,76.90
2023-03-06T00:20:16.567Z,76.80
2023-03-06T00:22:43.398Z,76.70
2023-03-06T00:25:14.083Z,76.90
2023-03-06T00:27:41.021Z,77.10
2023-03-06T00:30:08.436Z,77.00
2023-03-06T00:32:35.175Z,77.00
2023-03-06T00:35:01.908Z,77.10
2023-03-06T00:37:28.543Z,76.90
2023-03-06T00:39:55.284Z,77.10
2023-03-06T00:42:21.959Z,77.00
2023-03-06T00:44:48.651Z,77.20
2023-03-06T00:47:18.327Z,77.30
2023-03-06T00:49:45.486Z,77.30
2023-03-06T00:52:13.287Z,77.20
2023-03-06T00:54:40.798Z,77.40
2023-03-06T00:57:07.652Z,77.30
2023-03-06T00:59:34.306Z,77.30
2023-03-06T01:02:01.123Z,77.40
2023-03-06T01:04:27.857Z,77.40
2023-03-06T01:06:54.474Z,77.40
2023-03-06T01:09:21.379Z,77.70
2023-03-06T01:11:47.988Z,78.70
2023-03-06T01:14:14.729Z,77.80
2023-03-06T01:16:41.341Z,77.70
2023-03-06T01:19:08.019Z,77.80
2023-03-06T01:21:34.607Z,77.80
2023-03-06T01:24:01.363Z,77.80
2023-03-06T01:26:28.059Z,77.70
2023-03-06T01:28:57.363Z,77.80
2023-03-06T01:31:25.256Z,78.20
2023-03-06T01:33:52.126Z,78.30
2023-03-06T01:36:19.047Z,78.50
2023-03-06T01:38:45.796Z,78.60
2023-03-06T01:41:15.675Z,78.60
2023-03-06T01:43:45.913Z,79.30
2023-03-06T01:46:42.273Z,78.40
2023-03-06T01:49:12.583Z,78.60
2023-03-06T01:51:49.868Z,78.60
2023-03-06T01:54:24.438Z,78.50
2023-03-06T01:56:55.424Z,78.60
2023-03-06T01:59:23.707Z,78.60
2023-03-06T02:01:51.238Z,78.30
2023-03-06T02:04:18.711Z,78.30
2023-03-06T02:06:47.422Z,78.20
2023-03-06T02:09:14.746Z,78.10
2023-03-06T02:11:44.184Z,78.20
2023-03-06T02:14:13.313Z,78.20
2023-03-06T02:16:41.717Z,78.30
2023-03-06T02:19:20.652Z,78.50
2023-03-06T02:21:47.344Z,78.50
2023-03-06T02:24:40.477Z,78.80
2023-03-06T02:27:09.534Z,78.60
2023-03-06T02:29:36.227Z,78.70
2023-03-06T02:32:03.044Z,78.80
2023-03-06T02:34:29.714Z,78.70
2023-03-06T02:37:02.554Z,78.90
2023-03-06T02:39:32.659Z,78.80
2023-03-06T02:41:59.341Z,78.70
2023-03-06T02:44:27.493Z,79.20
2023-03-06T02:46:54.309Z,79.00
2023-03-06T02:49:21.003Z,79.10
2023-03-06T02:51:47.955Z,79.30
2023-03-06T02:54:14.593Z,79.20
2023-03-06T02:56:41.195Z,79.40
2023-03-06T02:59:07.839Z,79.50
2023-03-06T03:01:34.605Z,79.70
2023-03-06T03:04:01.265Z,79.80
2023-03-06T03:06:28.068Z,80.00
2023-03-06T03:08:54.927Z,80.20
2023-03-06T03:11:21.574Z,80.30
2023-03-06T03:13:48.212Z,80.30
2023-03-06T03:16:15.418Z,80.20
2023-03-06T03:18:47.875Z,80.20
2023-03-06T03:21:15.430Z,81.20
2023-03-06T03:23:42.039Z,80.50
2023-03-06T03:26:20.136Z,80.60
2023-03-06T03:28:46.795Z,80.80
2023-03-06T03:31:14.102Z,80.90
2023-03-06T03:33:41.333Z,80.90
2023-03-06T03:36:08.626Z,81.30
2023-03-06T03:38:35.751Z,81.20
2023-03-06T03:41:03.424Z,81.20
2023-03-06T03:43:30.642Z,81.20
2023-03-06T03:45:57.335Z,81.20
2023-03-06T03:48:23.947Z,81.10
2023-03-06T03:50:50.538Z,81.10
2023-03-06T03:53:17.174Z,81.20
2023-03-06T03:55:45.992Z,81.20
2023-03-06T03:58:12.588Z,81.70
2023-03-06T04:00:39.322Z,82.10
2023-03-06T04:03:05.918Z,82.00
2023-03-06T04:05:33.843Z,81.90
2023-03-06T04:08:02.995Z,82.00
2023-03-06T04:10:29.806Z,81.90
2023-03-06T04:12:56.583Z,82.40
2023-03-06T04:15:23.523Z,82.30
2023-03-06T04:17:50.254Z,83.10
2023-03-06T04:20:17.104Z,82.90
2023-03-06T04:22:43.786Z,83.00
2023-03-06T04:25:10.627Z,83.40
2023-03-06T04:27:37.316Z,83.30
2023-03-06T04:30:05.599Z,83.10
2023-03-06T04:32:32.368Z,83.90
2023-03-06T04:34:59.041Z,83.90
2023-03-06T04:37:26.938Z,84.50
2023-03-06T04:39:53.975Z,84.40
2023-03-06T04:42:20.824Z,84.30
2023-03-06T04:44:47.460Z,85.00
2023-03-06T04:47:14.279Z,85.80
2023-03-06T04:49:40.983Z,85.50
2023-03-06T04:52:07.904Z,86.00
2023-03-06T04:54:34.564Z,85.70
2023-03-06T04:57:01.435Z,85.50
2023-03-06T04:59:28.240Z,85.60
2023-03-06T05:01:55.165Z,86.20
2023-03-06T05:04:21.865Z,86.10
2023-03-06T05:06:49.127Z,85.80
2023-03-06T05:09:15.751Z,85.40
2023-03-06T05:11:42.413Z,85.90
2023-03-06T05:14:09.080Z,85.60
2023-03-06T05:16:35.820Z,85.70
2023-03-06T05:19:02.826Z,85.60
2023-03-06T05:21:29.451Z,85.60
2023-03-06T05:23:56.116Z,85.30
2023-03-06T05:26:22.787Z,85.20
2023-03-06T05:28:49.602Z,85.10
2023-03-06T05:31:16.258Z,85.20
2023-03-06T05:33:42.912Z,85.10
2023-03-06T05:36:09.938Z,85.00
2023-03-06T05:38:36.600Z,85.20
2023-03-06T05:41:03.289Z,85.10
2023-03-06T05:43:29.946Z,85.20
2023-03-06T05:46:07.123Z,85.20
2023-03-06T05:48:34.441Z,85.30
2023-03-06T05:51:02.332Z,85.20
2023-03-06T05:53:29.370Z,85.20
2023-03-06T05:55:57.610Z,85.30
2023-03-06T05:58:24.300Z,85.30
2023-03-06T06:00:52.126Z,85.30
2023-03-06T06:03:19.971Z,85.20
2023-03-06T06:05:46.971Z,85.40
2023-03-06T06:08:13.602Z,86.10
2023-03-06T06:10:40.402Z,85.70
2023-03-06T06:13:07.247Z,85.60
2023-03-06T06:15:33.933Z,85.60
2023-03-06T06:18:00.751Z,85.50
2023-03-06T06:20:28.470Z,85.40
2023-03-06T06:22:55.510Z,85.50
2023-03-06T06:25:22.176Z,85.60
2023-03-06T06:27:48.870Z,85.60
2023-03-06T06:30:15.673Z,85.30
2023-03-06T06:32:42.441Z,85.40
2023-03-06T06:35:09.983Z,85.90
2023-03-06T06:37:36.662Z,86.90
2023-03-06T06:40:04.522Z,87.10
2023-03-06T06:42:38.087Z,87.10
2023-03-06T06:45:06.968Z,86.80
2023-03-06T06:47:34.231Z,86.80
2023-03-06T06:50:00.975Z,86.80
2023-03-06T06:52:27.741Z,86.60
2023-03-06T06:54:54.516Z,86.40
2023-03-06T06:57:21.825Z,86.40
2023-03-06T06:59:48.428Z,86.00
2023-03-06T07:02:15.918Z,86.00
2023-03-06T07:05:00.245Z,85.90
2023-03-06T07:07:27.600Z,85.90
2023-03-06T07:09:55.538Z,86.30
2023-03-06T07:12:22.178Z,86.10
2023-03-06T07:14:48.818Z,85.80
2023-03-06T07:17:15.517Z,85.70
2023-03-06T07:19:42.152Z,85.90
2023-03-06T07:22:08.840Z,85.90
2023-03-06T07:24:35.495Z,85.90
2023-03-06T07:27:02.145Z,85.70
2023-03-06T07:29:29.198Z,85.80
2023-03-06T07:31:55.927Z,85.50
2023-03-06T07:34:22.687Z,85.50
2023-03-06T07:36:50.794Z,85.30
2023-03-06T07:39:17.573Z,85.70
2023-03-06T07:41:44.316Z,85.40
2023-03-06T07:44:10.966Z,85.70
2023-03-06T07:46:37.669Z,85.60
2023-03-06T07:49:04.424Z,85.50
2023-03-06T07:51:31.045Z,85.30
2023-03-06T07:53:57.687Z,85.10
2023-03-06T07:56:24.328Z,85.40
2023-03-06T07:58:50.987Z,85.10
2023-03-06T08:01:20.026Z,85.30
2023-03-06T08:03:48.758Z,85.00
2023-03-06T08:06:19.382Z,85.20
2023-03-06T08:08:47.970Z,85.00
2023-03-06T08:11:16.402Z,84.50
2023-03-06T08:13:43.781Z,84.70
2023-03-06T08:16:11.381Z,84.70
2023-03-06T08:18:42.434Z,84.50
2023-03-06T08:21:18.197Z,84.00
2023-03-06T08:23:45.301Z,84.80
2023-03-06T08:26:14.773Z,84.70
2023-03-06T08:28:41.481Z,83.10
2023-03-06T08:31:34.531Z,83.00
2023-03-06T08:34:07.383Z,83.00
2023-03-06T08:36:34.134Z,81.80
2023-03-06T08:39:01.295Z,82.30
2023-03-06T08:41:28.284Z,82.40
2023-03-06T08:43:55.168Z,81.60
2023-03-06T08:46:24.757Z,80.70
2023-03-06T08:48:51.804Z,80.70
2023-03-06T08:51:19.747Z,80.60
2023-03-06T08:53:46.582Z,79.00
2023-03-06T08:56:28.021Z,79.80
2023-03-06T08:58:56.374Z,79.20
2023-03-06T09:01:26.053Z,78.60
2023-03-06T09:03:55.677Z,76.60
2023-03-06T09:06:22.970Z,75.20
2023-03-06T09:08:52.009Z,76.60
2023-03-06T09:11:19.276Z,75.80
2023-03-06T09:13:45.942Z,75.10
2023-03-06T09:16:12.861Z,73.80
2023-03-06T09:18:39.782Z,73.20
2023-03-06T09:21:09.219Z,73.90
2023-03-06T09:23:37.196Z,72.40
2023-03-06T09:26:03.981Z,71.00
2023-03-06T09:28:30.703Z,70.40
2023-03-06T09:30:57.794Z,71.60
2023-03-06T09:33:24.510Z,69.80
2023-03-06T09:35:54.379Z,70.20
2023-03-06T09:38:23.432Z,67.40
2023-03-06T09:41:02.141Z,64.00
2023-03-06T09:43:44.577Z,67.10
2023-03-06T09:46:24.550Z,64.90
2023-03-06T09:49:23.156Z,66.40
2023-03-06T09:51:52.562Z,60.00
2023-03-06T09:54:22.744Z,62.70
2023-03-06T09:56:50.792Z,59.00
2023-03-06T09:59:23.271Z,63.90
2023-03-06T10:02:02.804Z,60.20
2023-03-06T10:04:42.314Z,63.30
2023-03-06T10:07:48.141Z,61.40
2023-03-06T10:10:26.718Z,58.60
2023-03-06T10:13:11.624Z,60.00
2023-03-06T10:15:43.995Z,62.00
2023-03-06T10:18:12.260Z,58.00
2023-03-06T10:21:19.305Z,59.90
2023-03-06T10:23:54.586Z,56.00
2023-03-06T10:26:36.276Z,58.40
2023-03-06T10:29:29.658Z,59.60
2023-03-06T10:32:10.707Z,60.20
2023-03-06T10:34:39.914Z,59.50
2023-03-06T10:37:18.932Z,59.10
2023-03-06T10:39:46.286Z,57.40
2023-03-06T10:42:13.280Z,55.20
2023-03-06T10:44:39.930Z,59.20
2023-03-06T10:47:42.260Z,58.10
2023-03-06T10:50:28.544Z,56.00
2023-03-06T10:53:05.452Z,54.90
2023-03-06T10:55:37.636Z,53.80
2023-03-06T10:58:36.428Z,54.30
2023-03-06T11:01:21.891Z,55.60
2023-03-06T11:03:48.801Z,56.50
2023-03-06T11:06:31.773Z,56.80
2023-03-06T11:09:16.409Z,57.50
2023-03-06T11:11:43.065Z,58.00
2023-03-06T11:14:18.005Z,58.10
2023-03-06T11:16:53.019Z,57.60
2023-03-06T11:19:26.459Z,56.10
2023-03-06T11:22:17.993Z,56.20
2023-03-06T11:24:51.308Z,57.50
2023-03-06T11:27:34.776Z,57.80
2023-03-06T11:30:24.271Z,57.00
2023-03-06T11:32:57.538Z,56.10
2023-03-06T11:35:28.369Z,57.70
2023-03-06T11:38:04.281Z,57.20
2023-03-06T11:40:43.123Z,57.60
2023-03-06T11:43:48.644Z,56.60
2023-03-06T11:46:40.083Z,57.00
2023-03-06T11:49:16.821Z,58.30
2023-03-06T11:51:59.229Z,58.40
2023-03-06T11:54:26.315Z,58.70
2023-03-06T11:57:04.756Z,59.00
2023-03-06T12:00:06.997Z,59.30
2023-03-06T12:02:59.757Z,59.30
2023-03-06T12:05:34.954Z,59.50
2023-03-06T12:08:19.823Z,60.10
2023-03-06T12:10:54.383Z,60.60
2023-03-06T12:14:00.972Z,61.40
2023-03-06T12:16:35.717Z,60.70
2023-03-06T12:19:16.325Z,60.70
2023-03-06T12:22:04.058Z,61.20
2023-03-06T12:25:00.464Z,61.00
2023-03-06T12:28:07.005Z,61.10
2023-03-06T12:31:02.443Z,61.20
2023-03-06T12:33:47.153Z,61.40
2023-03-06T12:36:21.554Z,60.90
2023-03-06T12:38:51.578Z,60.30
2023-03-06T12:41:43.232Z,60.50
2023-03-06T12:44:20.233Z,60.20
2023-03-06T12:46:57.599Z,60.00
2023-03-06T12:49:33.340Z,60.40
2023-03-06T12:52:02.100Z,59.90
2023-03-06T12:54:31.298Z,60.30
2023-03-06T12:57:00.416Z,60.60
2023-03-06T12:59:37.018Z,60.60
2023-03-06T13:02:27.638Z,60.90
2023-03-06T13:05:29.728Z,61.40
2023-03-06T13:08:31.627Z,61.50
2023-03-06T13:11:27.632Z,61.90
2023-03-06T13:13:54.897Z,62.50
2023-03-06T13:16:30.568Z,63.30
2023-03-06T13:19:20.008Z,63.10
2023-03-06T13:21:55.417Z,63.10
2023-03-06T13:24:29.087Z,63.40
2023-03-06T13:26:58.609Z,64.10
2023-03-06T13:29:37.326Z,63.40
2023-03-06T13:32:03.949Z,63.30
2023-03-06T13:34:38.827Z,63.30
2023-03-06T13:37:17.090Z,63.50
2023-03-06T13:39:55.606Z,63.30
2023-03-06T13:43:03.618Z,63.30
2023-03-06T13:45:37.680Z,63.00
2023-03-06T13:48:30.240Z,62.80
2023-03-06T13:50:53.550Z,63.60
2023-03-06T13:53:40.548Z,63.80
2023-03-06T13:56:38.005Z,63.90
2023-03-06T13:59:46.304Z,63.90
2023-03-06T14:02:39.579Z,63.50
2023-03-06T14:05:15.113Z,63.70
2023-03-06T14:08:01.783Z,64.30
2023-03-06T14:10:31.299Z,64.50
2023-03-06T14:13:05.912Z,63.20
2023-03-06T14:15:40.434Z,62.60
2023-03-06T14:18:19.075Z,61.70
2023-03-06T14:21:00.260Z,61.60
2023-03-06T14:23:26.858Z,60.90
2023-03-06T14:26:02.590Z,61.40
2023-03-06T14:28:31.059Z,60.60
2023-03-06T14:30:59.791Z,61.30
2023-03-06T14:33:48.572Z,61.50
2023-03-06T14:36:19.804Z,60.70
2023-03-06T14:38:53.525Z,59.10
2023-03-06T14:41:29.609Z,59.50
2023-03-06T14:44:17.570Z,59.90
2023-03-06T14:46:46.286Z,57.80
2023-03-06T14:49:15.198Z,58.70
2023-03-06T14:51:45.805Z,59.90
2023-03-06T14:54:34.217Z,60.00
2023-03-06T14:57:05.934Z,62.00
2023-03-06T14:59:55.999Z,62.50
2023-03-06T15:02:25.970Z,63.20
2023-03-06T15:04:57.253Z,63.20
2023-03-06T15:07:28.971Z,63.60
2023-03-06T15:09:55.864Z,63.00
2023-03-06T15:12:31.174Z,63.60
2023-03-06T15:15:10.440Z,63.20
2023-03-06T15:17:46.002Z,63.50
2023-03-06T15:20:41.215Z,64.20
2023-03-06T15:23:26.208Z,64.40
2023-03-06T15:26:00.860Z,64.00
2023-03-06T15:28:32.613Z,64.10
2023-03-06T15:31:16.976Z,63.90
2023-03-06T15:33:44.031Z,63.80
2023-03-06T15:36:27.596Z,63.10
2023-03-06T15:38:56.334Z,62.10
2023-03-06T15:41:36.293Z,62.50
2023-03-06T15:44:10.928Z,61.20
2023-03-06T15:46:37.684Z,61.70
2023-03-06T15:49:04.637Z,60.80
2023-03-06T15:51:31.977Z,61.60
2023-03-06T15:54:11.383Z,61.10
2023-03-06T15:56:41.705Z,61.20
2023-03-06T15:59:33.050Z,61.90
2023-03-06T16:02:10.652Z,61.80
2023-03-06T16:04:37.302Z,62.40
2023-03-06T16:07:04.191Z,63.40
2023-03-06T16:09:30.866Z,65.60
2023-03-06T16:11:57.498Z,67.60
2023-03-06T16:14:24.259Z,67.30
2023-03-06T16:16:52.620Z,68.10
2023-03-06T16:19:29.252Z,70.10
2023-03-06T16:21:56.971Z,68.20
2023-03-06T16:24:24.741Z,69.90
2023-03-06T16:26:53.328Z,69.10
2023-03-06T16:29:25.357Z,71.20
2023-03-06T16:31:52.549Z,71.80
2023-03-06T16:34:19.708Z,73.30
2023-03-06T16:36:48.179Z,75.70
2023-03-06T16:39:20.576Z,74.40
2023-03-06T16:41:49.199Z,73.60
2023-03-06T16:44:15.922Z,77.00
2023-03-06T16:46:47.460Z,74.80
2023-03-06T16:49:19.631Z,76.00
2023-03-06T16:51:46.649Z,75.40
2023-03-06T16:54:13.974Z,76.60
2023-03-06T16:56:41.049Z,77.20
2023-03-06T16:59:08.341Z,77.40
2023-03-06T17:01:35.264Z,77.90
2023-03-06T17:04:02.092Z,77.10
2023-03-06T17:06:29.046Z,77.40
2023-03-06T17:08:57.795Z,78.50
2023-03-06T17:11:24.909Z,78.80
2023-03-06T17:13:51.671Z,78.20
2023-03-06T17:16:18.442Z,78.10
2023-03-06T17:18:46.305Z,77.60
2023-03-06T17:21:15.647Z,77.10
2023-03-06T17:23:43.058Z,77.80
2023-03-06T17:26:18.664Z,77.00
2023-03-06T17:28:46.081Z,77.50
2023-03-06T17:31:22.041Z,77.50
2023-03-06T17:33:49.337Z,76.30
2023-03-06T17:36:16.878Z,76.50
2023-03-06T17:38:43.949Z,77.10
2023-03-06T17:41:11.911Z,77.60
2023-03-06T17:43:39.125Z,77.80
2023-03-06T17:46:08.013Z,77.80
2023-03-06T17:48:35.413Z,78.00
2023-03-06T17:51:02.210Z,78.00
2023-03-06T17:53:29.017Z,78.70
2023-03-06T17:55:57.885Z,78.50
2023-03-06T17:58:25.274Z,78.70
2023-03-06T18:00:52.013Z,79.10
2023-03-06T18:03:18.962Z,79.00
2023-03-06T18:05:45.663Z,80.20
2023-03-06T18:08:12.288Z,80.60
2023-03-06T18:10:40.511Z,81.00
2023-03-06T18:13:08.368Z,81.00
2023-03-06T18:15:39.507Z,80.90
2023-03-06T18:18:06.733Z,81.50
2023-03-06T18:20:33.463Z,81.30
2023-03-06T18:23:03.444Z,83.20
2023-03-06T18:25:32.036Z,82.60
2023-03-06T18:27:58.953Z,83.40
2023-03-06T18:30:26.327Z,82.80
2023-03-06T18:32:53.587Z,83.70
2023-03-06T18:35:20.600Z,82.50
2023-03-06T18:37:47.209Z,83.10
2023-03-06T18:40:14.316Z,82.30
2023-03-06T18:42:41.029Z,84.20
2023-03-06T18:45:08.178Z,84.20
2023-03-06T18:47:34.909Z,85.20
2023-03-06T18:50:02.952Z,85.10
2023-03-06T18:52:29.626Z,85.00
2023-03-06T18:54:56.292Z,85.90
2023-03-06T18:57:23.030Z,86.10
2023-03-06T18:59:50.004Z,85.10
2023-03-06T19:02:17.001Z,85.00
2023-03-06T19:04:43.685Z,85.50
2023-03-06T19:07:12.393Z,85.60
2023-03-06T19:09:39.047Z,87.10
2023-03-06T19:12:06.166Z,86.50
2023-03-06T19:14:32.855Z,86.20
2023-03-06T19:16:59.446Z,86.10
2023-03-06T19:19:26.335Z,85.60
2023-03-06T19:21:53.706Z,85.90
2023-03-06T19:24:20.317Z,86.10
2023-03-06T19:26:46.954Z,86.70
2023-03-06T19:29:13.563Z,86.20
2023-03-06T19:31:40.345Z,86.20
2023-03-06T19:34:07.073Z,86.40
2023-03-06T19:36:34.569Z,86.50
2023-03-06T19:39:03.885Z,87.90
2023-03-06T19:41:30.534Z,87.80
2023-03-06T19:43:59.522Z,88.40
2023-03-06T19:46:26.678Z,88.80
2023-03-06T19:49:01.940Z,88.10
2023-03-06T19:51:29.006Z,89.90
2023-03-06T19:53:56.929Z,89.40
2023-03-06T19:56:27.040Z,89.10
2023-03-06T19:58:53.845Z,89.80
2023-03-06T20:01:22.215Z,90.10
2023-03-06T20:03:50.592Z,90.00
2023-03-06T20:06:19.330Z,90.00
2023-03-06T20:08:47.451Z,89.30
2023-03-06T20:11:26.429Z,89.10
2023-03-06T20:13:53.706Z,90.00
2023-03-06T20:16:20.388Z,89.90
2023-03-06T20:18:47.078Z,89.40
2023-03-06T20:21:14.671Z,90.00
2023-03-06T20:23:41.805Z,90.10
2023-03-06T20:26:12.096Z,90.30
2023-03-06T20:28:40.575Z,90.40
2023-03-06T20:31:18.789Z,90.30
2023-03-06T20:33:48.992Z,90.70
2023-03-06T20:36:30.836Z,90.60
2023-03-06T20:39:00.588Z,91.00
2023-03-06T20:41:29.072Z,91.00
2023-03-06T20:43:55.833Z,90.90
2023-03-06T20:46:23.222Z,91.10
2023-03-06T20:48:51.980Z,91.10
2023-03-06T20:51:21.526Z,91.20
2023-03-06T20:53:49.789Z,91.20
2023-03-06T20:56:19.103Z,90.90
2023-03-06T20:58:45.766Z,91.40
2023-03-06T21:01:22.872Z,91.40
2023-03-06T21:03:49.692Z,92.00
2023-03-06T21:06:17.288Z,91.90
2023-03-06T21:08:44.054Z,91.90
2023-03-06T21:11:10.715Z,92.20
2023-03-06T21:13:37.550Z,92.10
2023-03-06T21:16:06.871Z,92.10
2023-03-06T21:18:33.834Z,92.60
2023-03-06T21:21:05.356Z,92.30
2023-03-06T21:23:32.106Z,92.80
2023-03-06T21:25:59.021Z,92.80
2023-03-06T21:28:25.716Z,93.40
2023-03-06T21:30:52.543Z,92.50
2023-03-06T21:33:19.327Z,92.50
2023-03-06T21:35:46.642Z,92.70
2023-03-06T21:38:13.934Z,93.80
2023-03-06T21:40:40.611Z,93.40
2023-03-06T21:43:07.287Z,93.50
2023-03-06T21:45:33.941Z,93.20
2023-03-06T21:48:01.001Z,93.00
2023-03-06T21:50:28.280Z,93.30
2023-03-06T21:52:56.479Z,93.40
2023-03-06T21:55:23.276Z,93.00
2023-03-06T21:57:54.120Z,93.20
2023-03-06T22:00:23.616Z,93.40
2023-03-06T22:02:50.524Z,93.30
2023-03-06T22:05:17.208Z,92.90
2023-03-06T22:07:44.150Z,93.50
2023-03-06T22:10:12.187Z,93.50
2023-03-06T22:12:39.971Z,93.50
2023-03-06T22:15:07.671Z,93.30
2023-03-06T22:17:34.325Z,93.30
2023-03-06T22:20:01.123Z,93.30
2023-03-06T22:22:27.753Z,92.90
2023-03-06T22:24:54.409Z,92.90
2023-03-06T22:27:21.761Z,92.20
2023-03-06T22:29:48.390Z,92.10
2023-03-06T22:32:15.462Z,92.00
2023-03-06T22:34:42.125Z,92.00
2023-03-06T22:37:08.759Z,91.90
2023-03-06T22:39:35.382Z,91.80
2023-03-06T22:42:02.111Z,92.20
2023-03-06T22:44:28.731Z,91.90
2023-03-06T22:46:55.400Z,92.00
2023-03-06T22:49:22.296Z,91.80
2023-03-06T22:51:48.906Z,91.40
2023-03-06T22:54:15.692Z,91.80
2023-03-06T22:56:42.338Z,91.90
2023-03-06T22:59:08.984Z,92.00
2023-03-06T23:01:35.870Z,91.90
2023-03-06T23:04:04.280Z,91.90
2023-03-06T23:06:39.854Z,92.10
2023-03-06T23:09:15.883Z,92.20
2023-03-06T23:11:42.713Z,92.40
2023-03-06T23:14:12.095Z,92.50
2023-03-06T23:16:39.520Z,92.50
2023-03-06T23:19:06.829Z,92.90
2023-03-06T23:21:34.537Z,92.60
2023-03-06T23:24:01.690Z,92.10
2023-03-06T23:26:30.255Z,92.20
2023-03-06T23:28:57.700Z,92.50
2023-03-06T23:31:28.793Z,92.60
2023-03-06T23:34:00.873Z,93.00
2023-03-06T23:36:28.692Z,93.00
2023-03-06T23:38:55.757Z,93.30
2023-03-06T23:41:23.618Z,93.30
2023-03-06T23:43:50.671Z,93.30
2023-03-06T23:46:17.825Z,93.60
2023-03-06T23:48:44.582Z,93.80
2023-03-06T23:51:22.007Z,94.00
2023-03-06T23:53:54.917Z,94.10
2023-03-06T23:56:21.737Z,94.00
2023-03-06T23:58:48.389Z,93.60
